createdAt,value
2018-02-22T00:00:24.542Z,70.40
2018-02-22T00:02:51.541Z,70.50
2018-02-22T00:05:18.550Z,71.00
2018-02-22T00:07:45.556Z,71.50
2018-02-22T00:10:13.343Z,72.90
2018-02-22T00:12:40.343Z,72.90
2018-02-22T00:15:08.115Z,72.80
2018-02-22T00:17:35.118Z,72.80
2018-02-22T00:20:02.118Z,72.60
2018-02-22T00:22:29.882Z,71.50
2018-02-22T00:24:56.891Z,71.70
2018-02-22T00:27:24.649Z,71.80
2018-02-22T00:29:52.431Z,71.80
2018-02-22T00:32:19.442Z,71.90
2018-02-22T00:34:46.470Z,71.50
2018-02-22T00:37:13.469Z,71.40
2018-02-22T00:39:40.474Z,71.50
2018-02-22T00:42:07.476Z,71.50
2018-02-22T00:44:34.485Z,72.00
2018-02-22T00:47:02.253Z,72.60
2018-02-22T00:49:30.025Z,72.40
2018-02-22T00:51:57.792Z,71.70
2018-02-22T00:54:25.564Z,71.20
2018-02-22T00:56:52.557Z,71.10
2018-02-22T00:59:19.571Z,70.90
2018-02-22T01:01:46.575Z,71.20
2018-02-22T01:04:13.587Z,72.10
2018-02-22T01:06:40.590Z,72.20
2018-02-22T01:09:07.609Z,71.70
2018-02-22T01:11:34.647Z,71.50
2018-02-22T01:14:01.645Z,71.50
2018-02-22T01:16:28.655Z,72.10
2018-02-22T01:18:56.434Z,72.60
2018-02-22T01:21:23.446Z,72.60
2018-02-22T01:23:50.447Z,73.20
2018-02-22T01:26:17.458Z,73.60
2018-02-22T01:28:45.819Z,73.20
2018-02-22T01:31:12.820Z,73.10
2018-02-22T01:33:39.820Z,73.10
2018-02-22T01:36:06.837Z,73.40
2018-02-22T01:38:33.830Z,73.10
2018-02-22T01:41:01.602Z,73.70
2018-02-22T01:43:28.646Z,73.60
2018-02-22T01:45:55.662Z,73.90
2018-02-22T01:48:22.662Z,73.40
2018-02-22T01:50:49.674Z,73.30
2018-02-22T01:53:17.437Z,72.60
2018-02-22T01:55:45.209Z,72.80
2018-02-22T01:58:12.220Z,72.80
2018-02-22T02:00:39.226Z,72.50
2018-02-22T02:03:06.225Z,72.20
2018-02-22T02:05:34.002Z,72.60
2018-02-22T02:08:01.767Z,72.20
2018-02-22T02:10:29.547Z,72.50
2018-02-22T02:12:56.543Z,72.50
2018-02-22T02:15:23.555Z,72.50
2018-02-22T02:17:50.553Z,71.60
2018-02-22T02:20:18.335Z,71.90
2018-02-22T02:22:45.335Z,71.90
2018-02-22T02:25:12.340Z,72.40
2018-02-22T02:27:39.345Z,72.20
2018-02-22T02:30:06.359Z,71.70
2018-02-22T02:32:33.819Z,72.00
2018-02-22T02:35:00.835Z,71.80
2018-02-22T02:37:27.832Z,72.00
2018-02-22T02:39:54.831Z,71.60
2018-02-22T02:42:21.843Z,71.60
2018-02-22T02:44:49.658Z,71.40
2018-02-22T02:47:16.667Z,71.40
2018-02-22T02:49:43.671Z,71.70
2018-02-22T02:52:10.686Z,71.40
2018-02-22T02:54:37.688Z,71.20
2018-02-22T02:57:05.459Z,70.40
2018-02-22T02:59:32.470Z,70.40
2018-02-22T03:01:59.484Z,70.70
2018-02-22T03:04:26.478Z,70.90
2018-02-22T03:06:54.251Z,70.30
2018-02-22T03:09:22.014Z,70.40
2018-02-22T03:11:49.782Z,70.10
2018-02-22T03:14:17.546Z,70.00
2018-02-22T03:16:45.323Z,70.00
2018-02-22T03:19:12.318Z,70.00
2018-02-22T03:21:39.327Z,70.50
2018-02-22T03:24:06.321Z,70.00
2018-02-22T03:26:33.327Z,70.40
2018-02-22T03:29:00.329Z,71.30
2018-02-22T03:31:28.103Z,70.70
2018-02-22T03:33:55.110Z,70.50
2018-02-22T03:36:22.117Z,70.30
2018-02-22T03:38:49.117Z,70.30
2018-02-22T03:41:16.131Z,70.60
2018-02-22T03:43:43.135Z,70.30
2018-02-22T03:46:10.134Z,70.00
2018-02-22T03:48:37.138Z,69.90
2018-02-22T03:51:04.160Z,69.90
2018-02-22T03:53:31.920Z,69.80
2018-02-22T03:55:59.731Z,70.10
2018-02-22T03:58:27.460Z,70.90
2018-02-22T04:00:54.462Z,70.80
2018-02-22T04:03:21.470Z,70.50
2018-02-22T04:05:48.479Z,70.70
2018-02-22T04:08:16.251Z,70.30
2018-02-22T04:10:44.018Z,70.00
2018-02-22T04:13:11.796Z,70.40
2018-02-22T04:15:38.804Z,70.20
2018-02-22T04:18:05.818Z,70.10
2018-02-22T04:20:32.819Z,70.60
2018-02-22T04:22:59.826Z,70.60
2018-02-22T04:25:26.828Z,70.10
2018-02-22T04:27:53.830Z,70.30
2018-02-22T04:30:20.824Z,69.90
2018-02-22T04:32:47.830Z,70.20
2018-02-22T04:35:14.822Z,70.00
2018-02-22T04:37:41.826Z,69.20
2018-02-22T04:40:09.586Z,70.30
2018-02-22T04:42:37.354Z,69.90
2018-02-22T04:45:05.122Z,69.80
2018-02-22T04:47:32.895Z,69.80
2018-02-22T04:49:59.898Z,69.80
2018-02-22T04:52:26.904Z,69.40
2018-02-22T04:54:53.901Z,70.00
2018-02-22T04:57:20.917Z,69.70
2018-02-22T04:59:47.918Z,69.90
2018-02-22T05:02:15.701Z,70.10
2018-02-22T05:04:42.706Z,70.10
2018-02-22T05:07:09.702Z,70.30
2018-02-22T05:09:36.699Z,69.80
2018-02-22T05:12:03.710Z,69.40
2018-02-22T05:14:30.702Z,70.10
2018-02-22T05:16:58.474Z,70.10
2018-02-22T05:19:26.243Z,70.30
2018-02-22T05:21:53.246Z,70.30
2018-02-22T05:24:20.250Z,70.30
2018-02-22T05:26:47.353Z,70.10
2018-02-22T05:29:15.143Z,69.70
2018-02-22T05:31:42.903Z,69.90
2018-02-22T05:34:10.683Z,70.30
2018-02-22T05:36:37.689Z,70.20
2018-02-22T05:39:04.713Z,70.10
2018-02-22T05:41:31.727Z,69.80
2018-02-22T05:43:58.741Z,69.70
2018-02-22T05:46:26.502Z,70.30
2018-02-22T05:48:54.281Z,69.80
2018-02-22T05:51:21.278Z,69.70
2018-02-22T05:53:48.296Z,69.60
2018-02-22T05:56:15.290Z,69.10
2018-02-22T05:58:42.304Z,68.90
2018-02-22T06:01:09.313Z,69.10
2018-02-22T06:03:36.331Z,69.20
2018-02-22T06:06:03.337Z,69.20
2018-02-22T06:08:30.347Z,69.40
2018-02-22T06:10:57.346Z,69.50
2018-02-22T06:13:24.365Z,69.60
2018-02-22T06:15:51.375Z,69.60
2018-02-22T06:18:19.150Z,69.80
2018-02-22T06:20:46.143Z,69.80
2018-02-22T06:23:13.158Z,69.60
2018-02-22T06:25:40.158Z,69.40
2018-02-22T06:28:07.177Z,69.90
2018-02-22T06:30:34.171Z,69.70
2018-02-22T06:33:01.178Z,69.50
2018-02-22T06:35:28.186Z,69.60
2018-02-22T06:37:55.186Z,69.30
2018-02-22T06:40:22.954Z,69.20
2018-02-22T06:42:50.728Z,68.90
2018-02-22T06:45:18.493Z,68.80
2018-02-22T06:47:46.259Z,68.50
2018-02-22T06:50:13.271Z,68.40
2018-02-22T06:52:40.270Z,68.50
2018-02-22T06:55:07.283Z,68.00
2018-02-22T06:57:35.050Z,68.00
2018-02-22T07:00:02.848Z,67.40
2018-02-22T07:02:30.610Z,67.60
2018-02-22T07:04:57.610Z,67.70
2018-02-22T07:07:24.630Z,67.90
2018-02-22T07:09:51.632Z,67.60
2018-02-22T07:12:18.639Z,67.90
2018-02-22T07:14:45.659Z,66.40
2018-02-22T07:17:12.657Z,66.70
2018-02-22T07:19:40.426Z,65.60
2018-02-22T07:22:07.434Z,65.60
2018-02-22T07:24:34.443Z,65.90
2018-02-22T07:27:01.459Z,65.40
2018-02-22T07:29:29.226Z,65.40
2018-02-22T07:31:56.242Z,65.40
2018-02-22T07:34:23.251Z,65.10
2018-02-22T07:36:50.250Z,64.40
2018-02-22T07:39:18.024Z,65.00
2018-02-22T07:41:45.788Z,63.80
2018-02-22T07:44:12.786Z,63.80
2018-02-22T07:46:40.707Z,64.50
2018-02-22T07:49:07.714Z,64.80
2018-02-22T07:51:34.714Z,65.20
2018-02-22T07:54:01.719Z,64.10
2018-02-22T07:56:29.504Z,64.00
2018-02-22T07:58:57.273Z,63.90
2018-02-22T08:01:24.279Z,63.90
2018-02-22T08:03:51.282Z,63.30
2018-02-22T08:06:18.302Z,62.60
2018-02-22T08:08:46.071Z,61.80
2018-02-22T08:11:13.071Z,61.70
2018-02-22T08:13:40.078Z,61.50
2018-02-22T08:16:07.083Z,60.30
2018-02-22T08:18:34.093Z,60.00
2018-02-22T08:21:01.082Z,60.30
2018-02-22T08:23:28.843Z,59.80
2018-02-22T08:25:56.606Z,61.20
2018-02-22T08:28:24.367Z,60.50
2018-02-22T08:30:51.398Z,60.40
2018-02-22T08:33:18.400Z,60.00
2018-02-22T08:35:45.401Z,59.90
2018-02-22T08:38:12.404Z,59.70
2018-02-22T08:40:40.174Z,60.10
2018-02-22T08:43:07.175Z,60.10
2018-02-22T08:45:34.954Z,59.20
2018-02-22T08:48:02.707Z,59.70
2018-02-22T08:50:30.466Z,60.20
2018-02-22T08:52:58.226Z,59.70
2018-02-22T08:55:26.000Z,59.50
2018-02-22T08:57:53.753Z,59.00
2018-02-22T09:00:21.523Z,59.10
2018-02-22T09:02:49.278Z,58.90
2018-02-22T09:05:17.046Z,58.60
2018-02-22T09:07:44.806Z,58.50
2018-02-22T09:10:12.579Z,58.40
2018-02-22T09:12:40.329Z,57.80
2018-02-22T09:15:08.097Z,58.20
2018-02-22T09:17:35.858Z,58.20
2018-02-22T09:20:03.616Z,58.20
2018-02-22T09:22:30.610Z,57.70
2018-02-22T09:24:57.601Z,56.60
2018-02-22T09:27:24.603Z,57.50
2018-02-22T09:29:51.602Z,57.10
2018-02-22T09:32:19.363Z,56.90
2018-02-22T09:34:47.134Z,56.20
2018-02-22T09:37:14.890Z,55.70
2018-02-22T09:39:42.658Z,54.80
2018-02-22T09:42:10.419Z,55.60
2018-02-22T09:44:38.183Z,55.50
2018-02-22T09:47:05.938Z,55.80
2018-02-22T09:49:32.952Z,55.20
2018-02-22T09:51:59.942Z,54.40
2018-02-22T09:54:28.651Z,55.20
2018-02-22T09:56:55.662Z,55.20
2018-02-22T09:59:22.658Z,53.80
2018-02-22T10:01:49.672Z,54.50
2018-02-22T10:04:17.431Z,54.40
2018-02-22T10:06:46.463Z,54.20
2018-02-22T10:09:13.453Z,54.10
2018-02-22T10:11:40.465Z,54.50
2018-02-22T10:14:07.457Z,53.50
2018-02-22T10:16:35.227Z,53.60
2018-02-22T10:19:02.996Z,53.40
2018-02-22T10:21:30.755Z,53.90
2018-02-22T10:23:58.518Z,54.20
2018-02-22T10:26:26.291Z,53.80
2018-02-22T10:28:54.042Z,52.80
2018-02-22T10:31:22.127Z,53.00
2018-02-22T10:33:49.155Z,52.90
2018-02-22T10:36:16.126Z,52.30
2018-02-22T10:38:43.570Z,51.50
2018-02-22T10:41:11.043Z,52.50
2018-02-22T10:43:38.484Z,51.40
2018-02-22T10:46:05.936Z,50.90
2018-02-22T10:48:34.157Z,49.80
2018-02-22T10:51:01.619Z,49.70
2018-02-22T10:53:29.071Z,49.00
2018-02-22T10:55:56.530Z,49.40
2018-02-22T10:58:23.982Z,48.10
2018-02-22T11:00:57.176Z,47.50
2018-02-22T11:03:24.635Z,47.60
2018-02-22T11:05:52.095Z,47.50
2018-02-22T11:08:19.547Z,47.40
2018-02-22T11:10:50.340Z,47.50
2018-02-22T11:13:17.847Z,47.90
2018-02-22T11:15:45.303Z,47.30
2018-02-22T11:18:12.762Z,47.80
2018-02-22T11:20:39.758Z,47.90
2018-02-22T11:23:07.989Z,48.30
2018-02-22T11:25:35.440Z,48.30
2018-02-22T11:28:02.479Z,48.00
2018-02-22T11:30:30.655Z,49.30
2018-02-22T11:32:58.115Z,49.30
2018-02-22T11:35:25.567Z,48.70
2018-02-22T11:37:53.022Z,47.70
2018-02-22T11:40:20.484Z,47.90
2018-02-22T11:42:47.940Z,47.90
2018-02-22T11:45:15.395Z,48.20
2018-02-22T11:47:42.846Z,47.80
2018-02-22T11:50:10.305Z,48.40
2018-02-22T11:52:37.759Z,47.80
2018-02-22T11:55:05.220Z,47.40
2018-02-22T11:57:32.671Z,48.00
2018-02-22T12:00:00.128Z,47.30
2018-02-22T12:02:27.583Z,47.90
2018-02-22T12:04:55.040Z,46.70
2018-02-22T12:07:22.499Z,46.40
2018-02-22T12:09:49.956Z,44.10
2018-02-22T12:12:17.407Z,44.70
2018-02-22T12:14:44.867Z,44.90
2018-02-22T12:17:12.320Z,44.30
2018-02-22T12:19:39.776Z,43.80
2018-02-22T12:22:07.231Z,42.80
2018-02-22T12:24:34.687Z,43.30
2018-02-22T12:27:02.152Z,43.50
2018-02-22T12:29:29.603Z,42.60
2018-02-22T12:31:57.066Z,42.30
2018-02-22T12:34:24.511Z,41.00
2018-02-22T12:36:51.982Z,40.80
2018-02-22T12:39:19.447Z,41.40
2018-02-22T12:41:46.918Z,40.90
2018-02-22T12:44:14.379Z,41.20
2018-02-22T12:46:41.832Z,41.70
2018-02-22T12:49:09.283Z,42.10
2018-02-22T12:51:36.743Z,40.30
2018-02-22T12:54:04.191Z,39.50
2018-02-22T12:56:31.648Z,40.00
2018-02-22T12:58:59.098Z,41.00
2018-02-22T13:01:26.103Z,42.40
2018-02-22T13:03:53.548Z,42.20
2018-02-22T13:06:21.776Z,41.90
2018-02-22T13:08:49.235Z,42.00
2018-02-22T13:11:16.678Z,42.30
2018-02-22T13:13:43.677Z,41.60
2018-02-22T13:16:11.442Z,42.90
2018-02-22T13:18:39.667Z,42.00
2018-02-22T13:21:06.659Z,42.00
2018-02-22T13:23:34.431Z,43.70
2018-02-22T13:26:02.651Z,44.60
2018-02-22T13:28:30.120Z,44.60
2018-02-22T13:30:57.575Z,44.00
2018-02-22T13:33:30.598Z,44.30
2018-02-22T13:35:58.367Z,43.60
2018-02-22T13:38:32.016Z,44.70
2018-02-22T13:40:59.010Z,44.70
2018-02-22T13:43:26.014Z,44.60
2018-02-22T13:45:53.007Z,44.30
2018-02-22T13:48:21.243Z,45.20
2018-02-22T13:50:54.119Z,45.20
2018-02-22T13:53:21.141Z,43.60
2018-02-22T13:55:48.141Z,45.50
2018-02-22T13:58:15.145Z,44.00
2018-02-22T14:00:54.599Z,45.80
2018-02-22T14:03:21.631Z,46.80
2018-02-22T14:05:48.613Z,45.50
2018-02-22T14:08:21.586Z,46.00
2018-02-22T14:10:48.587Z,44.70
2018-02-22T14:13:16.350Z,45.20
2018-02-22T14:15:43.341Z,45.30
2018-02-22T14:18:10.342Z,45.90
2018-02-22T14:20:37.346Z,45.10
2018-02-22T14:23:04.360Z,46.40
2018-02-22T14:25:31.357Z,46.50
2018-02-22T14:27:58.367Z,46.40
2018-02-22T14:30:25.366Z,46.70
2018-02-22T14:32:53.126Z,46.30
2018-02-22T14:35:21.478Z,46.80
2018-02-22T14:37:48.484Z,46.80
2018-02-22T14:40:15.490Z,47.00
2018-02-22T14:42:43.258Z,46.70
2018-02-22T14:45:11.177Z,46.70
2018-02-22T14:47:38.182Z,46.60
2018-02-22T14:50:05.178Z,46.90
2018-02-22T14:52:32.456Z,47.00
2018-02-22T14:54:59.499Z,46.80
2018-02-22T14:57:27.386Z,48.20
2018-02-22T14:59:55.143Z,48.00
2018-02-22T15:02:23.716Z,47.90
2018-02-22T15:04:50.710Z,47.90
2018-02-22T15:07:17.701Z,47.40
2018-02-22T15:09:44.697Z,47.70
2018-02-22T15:12:12.461Z,48.10
2018-02-22T15:14:39.482Z,48.10
2018-02-22T15:17:07.247Z,48.10
2018-02-22T15:19:35.128Z,48.80
2018-02-22T15:22:02.125Z,48.80
2018-02-22T15:24:29.122Z,49.10
2018-02-22T15:26:56.522Z,48.70
2018-02-22T15:29:23.603Z,48.40
2018-02-22T15:31:51.361Z,48.10
2018-02-22T15:34:18.397Z,48.10
2018-02-22T15:36:45.413Z,47.70
2018-02-22T15:39:12.419Z,47.40
2018-02-22T15:41:40.327Z,48.30
2018-02-22T15:44:07.435Z,48.30
2018-02-22T15:46:35.197Z,49.00
2018-02-22T15:49:02.961Z,47.60
2018-02-22T15:51:30.725Z,47.60
2018-02-22T15:53:58.490Z,48.70
2018-02-22T15:56:26.246Z,48.40
2018-02-22T15:58:54.014Z,48.70
2018-02-22T16:01:21.783Z,48.20
2018-02-22T16:03:49.550Z,48.40
2018-02-22T16:06:17.311Z,48.70
2018-02-22T16:08:45.080Z,48.70
2018-02-22T16:11:12.839Z,49.00
2018-02-22T16:13:40.599Z,49.10
2018-02-22T16:16:08.362Z,49.10
2018-02-22T16:18:36.126Z,49.00
2018-02-22T16:21:03.882Z,48.80
2018-02-22T16:23:30.894Z,48.80
2018-02-22T16:25:57.896Z,48.90
2018-02-22T16:28:25.663Z,49.70
2018-02-22T16:30:53.419Z,49.80
2018-02-22T16:33:21.198Z,49.70
2018-02-22T16:35:48.202Z,49.80
2018-02-22T16:38:15.194Z,49.70
2018-02-22T16:40:42.198Z,49.90
2018-02-22T16:43:09.203Z,49.80
2018-02-22T16:45:36.212Z,50.50
2018-02-22T16:48:03.970Z,51.00
2018-02-22T16:50:30.974Z,50.80
2018-02-22T16:52:57.962Z,50.10
2018-02-22T16:55:25.726Z,49.70
2018-02-22T16:57:53.486Z,50.60
2018-02-22T17:00:20.498Z,50.60
2018-02-22T17:02:47.500Z,50.60
2018-02-22T17:05:15.258Z,50.60
2018-02-22T17:07:43.023Z,50.60
2018-02-22T17:10:10.787Z,50.90
2018-02-22T17:12:38.555Z,52.10
2018-02-22T17:15:06.318Z,50.90
2018-02-22T17:17:39.986Z,50.90
2018-02-22T17:20:06.990Z,50.80
2018-02-22T17:22:33.998Z,51.20
2018-02-22T17:25:01.792Z,51.20
2018-02-22T17:27:34.536Z,51.60
2018-02-22T17:30:07.343Z,51.30
2018-02-22T17:32:34.690Z,51.70
2018-02-22T17:35:02.505Z,51.60
2018-02-22T17:37:29.495Z,51.60
2018-02-22T17:40:08.923Z,52.00
2018-02-22T17:42:38.374Z,51.60
2018-02-22T17:45:05.381Z,51.40
2018-02-22T17:47:33.152Z,51.80
2018-02-22T17:50:00.904Z,51.80
2018-02-22T17:52:27.898Z,51.80
2018-02-22T17:54:54.903Z,51.70
2018-02-22T17:57:22.661Z,52.20
2018-02-22T17:59:50.434Z,52.40
2018-02-22T18:02:18.202Z,52.50
2018-02-22T18:04:45.962Z,52.60
2018-02-22T18:07:13.753Z,52.40
2018-02-22T18:09:40.762Z,52.40
2018-02-22T18:12:08.522Z,51.90
2018-02-22T18:14:35.535Z,52.30
2018-02-22T18:17:02.538Z,51.80
2018-02-22T18:19:29.546Z,52.10
2018-02-22T18:21:56.542Z,52.30
2018-02-22T18:24:23.560Z,52.70
2018-02-22T18:26:51.325Z,52.60
2018-02-22T18:29:19.091Z,52.40
2018-02-22T18:31:46.850Z,52.10
2018-02-22T18:34:14.607Z,52.40
2018-02-22T18:36:42.374Z,52.00
2018-02-22T18:39:16.906Z,51.60
2018-02-22T18:41:50.369Z,51.20
2018-02-22T18:44:36.185Z,51.20
2018-02-22T18:47:03.953Z,51.20
2018-02-22T18:49:31.727Z,51.40
2018-02-22T18:51:58.766Z,51.40
2018-02-22T18:54:25.810Z,51.00
2018-02-22T18:56:53.578Z,50.90
2018-02-22T18:59:21.333Z,51.20
2018-02-22T19:01:49.090Z,50.10
2018-02-22T19:04:17.004Z,50.30
2018-02-22T19:06:44.023Z,50.90
2018-02-22T19:09:11.014Z,51.30
2018-02-22T19:11:38.013Z,51.30
2018-02-22T19:14:05.006Z,50.60
2018-02-22T19:16:32.006Z,50.40
2018-02-22T19:18:59.014Z,50.40
2018-02-22T19:21:26.019Z,50.90
2018-02-22T19:23:53.019Z,50.20
2018-02-22T19:26:20.018Z,50.30
2018-02-22T19:28:47.009Z,49.90
2018-02-22T19:31:14.025Z,50.30
2018-02-22T19:33:41.019Z,50.50
2018-02-22T19:36:08.864Z,50.70
2018-02-22T19:38:35.872Z,50.60
2018-02-22T19:41:02.868Z,50.30
2018-02-22T19:43:30.630Z,49.90
2018-02-22T19:45:58.395Z,49.90
2018-02-22T19:48:26.169Z,50.50
2018-02-22T19:50:53.178Z,50.50
2018-02-22T19:53:20.168Z,50.20
2018-02-22T19:55:47.171Z,50.40
2018-02-22T19:58:14.170Z,49.80
2018-02-22T20:00:41.175Z,49.90
2018-02-22T20:03:08.162Z,50.30
2018-02-22T20:05:35.170Z,50.90
2018-02-22T20:08:02.931Z,51.10
2018-02-22T20:10:30.697Z,50.90
2018-02-22T20:12:58.458Z,51.20
2018-02-22T20:15:26.220Z,51.60
2018-02-22T20:17:53.230Z,50.90
2018-02-22T20:20:20.227Z,51.10
2018-02-22T20:22:47.230Z,51.60
2018-02-22T20:25:15.039Z,50.90
2018-02-22T20:27:42.806Z,51.30
2018-02-22T20:30:09.803Z,51.30
2018-02-22T20:32:36.810Z,51.30
2018-02-22T20:35:03.802Z,51.70
2018-02-22T20:37:30.807Z,52.20
2018-02-22T20:39:57.815Z,51.70
2018-02-22T20:42:25.578Z,51.90
2018-02-22T20:44:53.343Z,51.30
2018-02-22T20:47:21.114Z,51.30
2018-02-22T20:49:48.865Z,51.50
2018-02-22T20:52:35.283Z,51.40
2018-02-22T20:55:04.014Z,52.20
2018-02-22T20:57:31.023Z,52.20
2018-02-22T20:59:58.013Z,52.10
2018-02-22T21:02:25.210Z,51.80
2018-02-22T21:04:52.247Z,52.10
2018-02-22T21:07:20.019Z,52.00
2018-02-22T21:09:47.789Z,52.20
2018-02-22T21:12:15.545Z,52.50
2018-02-22T21:14:43.307Z,51.80
2018-02-22T21:17:11.087Z,51.70
2018-02-22T21:19:38.079Z,51.60
2018-02-22T21:22:05.084Z,51.70
2018-02-22T21:24:32.080Z,52.20
2018-02-22T21:26:59.077Z,52.10
2018-02-22T21:29:26.080Z,52.20
2018-02-22T21:31:53.082Z,51.80
2018-02-22T21:34:20.074Z,52.20
2018-02-22T21:36:47.090Z,51.80
2018-02-22T21:39:14.082Z,52.10
2018-02-22T21:41:41.845Z,52.50
2018-02-22T21:44:09.611Z,52.20
2018-02-22T21:46:37.374Z,53.40
2018-02-22T21:49:05.138Z,52.70
2018-02-22T21:51:32.907Z,52.70
2018-02-22T21:53:59.893Z,52.70
2018-02-22T21:56:26.898Z,52.20
2018-02-22T21:58:55.378Z,52.20
2018-02-22T22:01:23.147Z,52.00
2018-02-22T22:03:50.208Z,51.90
2018-02-22T22:06:17.210Z,52.10
2018-02-22T22:08:44.206Z,52.50
2018-02-22T22:11:11.210Z,52.00
2018-02-22T22:13:38.987Z,52.40
2018-02-22T22:16:06.750Z,52.70
2018-02-22T22:18:34.522Z,52.90
2018-02-22T22:21:02.299Z,52.50
2018-02-22T22:23:29.309Z,52.50
2018-02-22T22:25:57.065Z,52.10
2018-02-22T22:28:24.271Z,52.40
2018-02-22T22:30:51.284Z,52.30
2018-02-22T22:33:19.074Z,52.30
2018-02-22T22:35:46.069Z,52.90
2018-02-22T22:38:13.841Z,52.10
2018-02-22T22:40:41.655Z,52.70
2018-02-22T22:43:08.650Z,52.60
2018-02-22T22:45:37.025Z,52.70
2018-02-22T22:48:04.035Z,52.70
2018-02-22T22:50:31.048Z,52.60
2018-02-22T22:52:58.797Z,52.10
2018-02-22T22:55:27.175Z,52.40
2018-02-22T22:57:54.938Z,52.50
2018-02-22T23:00:22.699Z,52.80
2018-02-22T23:02:50.495Z,52.20
2018-02-22T23:05:18.247Z,52.10
2018-02-22T23:07:45.258Z,52.10
2018-02-22T23:10:13.019Z,52.50
2018-02-22T23:12:40.026Z,52.40
2018-02-22T23:15:07.019Z,52.20
2018-02-22T23:17:34.788Z,51.70
2018-02-22T23:20:02.547Z,52.10
2018-02-22T23:22:30.513Z,52.30
2018-02-22T23:24:58.267Z,52.20
2018-02-22T23:27:25.283Z,52.20
2018-02-22T23:29:52.278Z,52.20
2018-02-22T23:32:20.040Z,52.20
2018-02-22T23:34:47.810Z,51.50
2018-02-22T23:37:15.561Z,51.80
2018-02-22T23:39:44.233Z,51.70
2018-02-22T23:42:13.173Z,51.70
2018-02-22T23:44:40.166Z,51.80
2018-02-22T23:47:07.166Z,51.80
2018-02-22T23:49:34.166Z,52.00
2018-02-22T23:52:01.937Z,52.10
2018-02-22T23:54:29.692Z,51.50
2018-02-22T23:56:57.454Z,51.40
2018-02-22T23:59:25.225Z,51.70
